Time;durP1;ratioP1;P1;durP2;ratioP2;P2;SDS_P1;SDS_P2;PMS_P1;PMS_P2;Temp;Humidity;BMP_temperature;BMP_pressure;BME280_temperature;BME280_humidity;BME280_pressure;Samples;Min_cycle;Max_cycle;Signal;HPM_P1;HPM_P2
2023/03/19 00:00:30;;;;;;;1.98;1.20;;;;;;;;;;5042780;27;87887;-79
2023/03/19 00:02:57;;;;;;;3.30;1.20;;;;;;;;;;5042150;27;87905;-78
2023/03/19 00:05:23;;;;;;;3.33;1.30;;;;;;;;;;5029726;27;88045;-78
2023/03/19 00:07:50;;;;;;;5.38;1.20;;;;;;;;;;5040640;27;88030;-78
2023/03/19 00:10:17;;;;;;;2.70;1.00;;;;;;;;;;5025626;28;90482;-78
2023/03/19 00:12:43;;;;;;;2.25;1.20;;;;;;;;;;5034658;27;88374;-78
2023/03/19 00:15:12;;;;;;;3.60;1.35;;;;;;;;;;5040758;28;88966;-78
2023/03/19 00:17:44;;;;;;;4.28;1.10;;;;;;;;;;5043538;27;88917;-79
2023/03/19 00:20:11;;;;;;;3.25;1.30;;;;;;;;;;5042573;27;87747;-79
2023/03/19 00:22:38;;;;;;;3.08;1.38;;;;;;;;;;5040821;27;87618;-78
2023/03/19 00:25:06;;;;;;;2.25;1.30;;;;;;;;;;5039888;28;88194;-78
2023/03/19 00:27:33;;;;;;;5.13;1.50;;;;;;;;;;5029069;28;88381;-78
2023/03/19 00:30:01;;;;;;;2.22;1.10;;;;;;;;;;5040147;28;90603;-77
2023/03/19 00:32:28;;;;;;;1.70;1.05;;;;;;;;;;5034363;28;87477;-77
2023/03/19 00:34:55;;;;;;;4.50;1.30;;;;;;;;;;5033248;27;87841;-77
2023/03/19 00:37:22;;;;;;;2.42;1.20;;;;;;;;;;5035708;28;90261;-77
2023/03/19 00:39:49;;;;;;;2.47;1.02;;;;;;;;;;5035521;28;89366;-78
2023/03/19 00:42:15;;;;;;;2.13;1.20;;;;;;;;;;5039145;28;89687;-80
2023/03/19 00:44:45;;;;;;;3.15;1.33;;;;;;;;;;5045743;27;87570;-80
2023/03/19 00:47:12;;;;;;;3.15;1.20;;;;;;;;;;5028112;28;90203;-80
2023/03/19 00:49:39;;;;;;;3.60;1.23;;;;;;;;;;5016928;28;89567;-79
2023/03/19 00:52:06;;;;;;;2.70;1.23;;;;;;;;;;5044776;28;90609;-80
2023/03/19 00:54:33;;;;;;;3.50;1.23;;;;;;;;;;5027873;28;89779;-79
2023/03/19 00:57:00;;;;;;;4.43;1.50;;;;;;;;;;5018113;28;95174;-79
2023/03/19 00:59:26;;;;;;;1.83;1.00;;;;;;;;;;5045927;27;88627;-79
2023/03/19 01:01:53;;;;;;;1.90;1.05;;;;;;;;;;5040688;28;88067;-79
2023/03/19 01:04:20;;;;;;;3.33;1.20;;;;;;;;;;5035989;28;88584;-78
2023/03/19 01:06:47;;;;;;;3.88;1.27;;;;;;;;;;5008778;28;90526;-78
2023/03/19 01:09:14;;;;;;;3.72;1.30;;;;;;;;;;5036513;28;88171;-78
2023/03/19 01:11:40;;;;;;;2.88;1.20;;;;;;;;;;5036158;28;91958;-79
2023/03/19 01:14:07;;;;;;;2.42;1.30;;;;;;;;;;5044135;28;89442;-79
2023/03/19 01:16:34;;;;;;;3.17;1.38;;;;;;;;;;5039308;27;89451;-82
2023/03/19 01:19:02;;;;;;;2.97;1.35;;;;;;;;;;5024197;28;94312;-78
2023/03/19 01:21:29;;;;;;;;;;;;;;;;;;5039056;28;93308;-78
2023/03/19 01:23:56;;;;;;;5.55;1.60;;;;;;;;;;5034649;28;93048;-79
2023/03/19 01:26:25;;;;;;;5.00;1.30;;;;;;;;;;5010293;28;95480;-78
2023/03/19 01:28:56;;;;;;;5.88;1.50;;;;;;;;;;4985463;28;95045;-79
2023/03/19 01:31:24;;;;;;;4.97;1.70;;;;;;;;;;5012761;28;96054;-78
2023/03/19 01:34:20;;;;;;;6.43;2.00;;;;;;;;;;5016098;28;94216;-78
2023/03/19 01:36:51;;;;;;;4.75;1.80;;;;;;;;;;5027413;28;92650;-77
2023/03/19 01:39:23;;;;;;;5.07;2.00;;;;;;;;;;5038679;28;94327;-78
2023/03/19 01:41:50;;;;;;;5.53;2.17;;;;;;;;;;5040327;28;92355;-77
2023/03/19 01:44:40;;;;;;;3.88;1.90;;;;;;;;;;4990988;27;93549;-77
2023/03/19 01:47:31;;;;;;;4.97;2.17;;;;;;;;;;5039945;28;94095;-76
2023/03/19 01:50:26;;;;;;;6.75;2.00;;;;;;;;;;5040344;28;92624;-77
2023/03/19 01:53:17;;;;;;;5.80;2.22;;;;;;;;;;5013315;28;99421;-76
2023/03/19 01:56:12;;;;;;;4.95;2.03;;;;;;;;;;4997314;28;95002;-77
2023/03/19 01:58:54;;;;;;;3.92;1.63;;;;;;;;;;5018571;28;92158;-76
2023/03/19 02:01:36;;;;;;;5.75;2.42;;;;;;;;;;5034396;28;95127;-77
2023/03/19 02:04:03;;;;;;;6.15;2.15;;;;;;;;;;5040720;28;92540;-76
2023/03/19 02:06:33;;;;;;;5.63;2.05;;;;;;;;;;5039803;28;94929;-77
2023/03/19 02:09:00;;;;;;;4.13;1.95;;;;;;;;;;5023048;28;99257;-77
2023/03/19 02:11:27;;;;;;;6.03;2.13;;;;;;;;;;5029566;28;92318;-77
2023/03/19 02:13:54;;;;;;;4.25;2.30;;;;;;;;;;5015257;28;93347;-77
2023/03/19 02:16:21;;;;;;;3.40;1.70;;;;;;;;;;5040107;28;92783;-77
2023/03/19 02:18:48;;;;;;;4.30;1.70;;;;;;;;;;5017351;27;92723;-77
2023/03/19 02:21:16;;;;;;;4.72;2.00;;;;;;;;;;5041525;28;94816;-78
2023/03/19 02:23:44;;;;;;;7.28;2.30;;;;;;;;;;5031489;28;92221;-77
2023/03/19 02:26:17;;;;;;;5.22;2.10;;;;;;;;;;5015142;28;94479;-77
2023/03/19 02:28:47;;;;;;;4.47;1.80;;;;;;;;;;5019354;28;94587;-77
2023/03/19 02:31:19;;;;;;;5.38;1.75;;;;;;;;;;5020186;28;92180;-76
2023/03/19 02:33:57;;;;;;;4.85;1.90;;;;;;;;;;5008943;28;94192;-76
2023/03/19 02:36:25;;;;;;;6.20;2.58;;;;;;;;;;5036989;28;95208;-77
2023/03/19 02:38:53;;;;;;;4.95;2.17;;;;;;;;;;5035073;27;91521;-79
2023/03/19 02:41:20;;;;;;;;;;;;;;;;;;5037772;27;92350;-78
2023/03/19 02:43:46;;;;;;;5.97;1.88;;;;;;;;;;5021262;28;92187;-79
2023/03/19 02:46:13;;;;;;;5.00;2.03;;;;;;;;;;5036955;28;94936;-79
2023/03/19 02:48:40;;;;;;;4.55;2.10;;;;;;;;;;5040547;27;92750;-78
2023/03/19 02:51:07;;;;;;;3.88;1.60;;;;;;;;;;5041073;27;92528;-79
2023/03/19 02:53:34;;;;;;;5.50;2.17;;;;;;;;;;5039698;28;93037;-79
2023/03/19 02:56:01;;;;;;;3.85;1.75;;;;;;;;;;5027519;28;95292;-80
2023/03/19 02:58:28;;;;;;;4.70;1.80;;;;;;;;;;5014304;28;92147;-80
2023/03/19 03:00:54;;;;;;;3.63;1.80;;;;;;;;;;5040578;27;93539;-80
2023/03/19 03:03:20;;;;;;;4.10;1.80;;;;;;;;;;5028623;28;94051;-78
2023/03/19 03:05:47;;;;;;;2.92;1.90;;;;;;;;;;5022537;28;92436;-77
2023/03/19 03:08:14;;;;;;;6.93;1.90;;;;;;;;;;5038784;27;92135;-78
2023/03/19 03:10:41;;;;;;;5.32;1.92;;;;;;;;;;5020889;28;94576;-77
2023/03/19 03:13:08;;;;;;;6.80;1.92;;;;;;;;;;5036890;27;95397;-78
2023/03/19 03:15:34;;;;;;;6.38;1.98;;;;;;;;;;5032484;27;92860;-78
2023/03/19 03:18:01;;;;;;;6.88;2.47;;;;;;;;;;5022303;28;92415;-79
2023/03/19 03:20:28;;;;;;;6.70;2.60;;;;;;;;;;5038749;28;94802;-78
2023/03/19 03:22:54;;;;;;;5.15;1.90;;;;;;;;;;5031072;28;95760;-79
2023/03/19 03:25:21;;;;;;;5.18;2.30;;;;;;;;;;5039613;28;92204;-78
2023/03/19 03:27:47;;;;;;;5.05;2.13;;;;;;;;;;5013350;28;93000;-78
2023/03/19 03:30:15;;;;;;;5.30;1.95;;;;;;;;;;5021709;28;92343;-78
2023/03/19 03:32:41;;;;;;;5.50;2.00;;;;;;;;;;5007441;28;94810;-78
2023/03/19 03:35:08;;;;;;;5.30;2.28;;;;;;;;;;5011653;28;97107;-77
2023/03/19 03:37:36;;;;;;;5.97;2.20;;;;;;;;;;5030389;28;92537;-78
2023/03/19 03:40:06;;;;;;;5.72;2.40;;;;;;;;;;5018872;28;94798;-79
2023/03/19 03:42:35;;;;;;;5.00;2.00;;;;;;;;;;5018032;28;95383;-78
2023/03/19 03:45:03;;;;;;;14.70;2.63;;;;;;;;;;5021585;28;93766;-78
2023/03/19 03:47:31;;;;;;;6.50;2.05;;;;;;;;;;5024578;28;93550;-77
2023/03/19 03:49:57;;;;;;;6.07;2.35;;;;;;;;;;5038557;28;92774;-78
2023/03/19 03:52:24;;;;;;;9.02;2.33;;;;;;;;;;5028043;28;92531;-77
2023/03/19 03:54:50;;;;;;;10.65;2.50;;;;;;;;;;5030798;27;93198;-77
2023/03/19 03:57:16;;;;;;;7.75;2.40;;;;;;;;;;5036301;27;92167;-77
2023/03/19 03:59:43;;;;;;;4.43;2.08;;;;;;;;;;5022587;28;94752;-78
2023/03/19 04:02:10;;;;;;;8.63;2.33;;;;;;;;;;5021605;28;96322;-77
2023/03/19 04:04:37;;;;;;;5.65;2.10;;;;;;;;;;5035574;28;92399;-79
2023/03/19 04:07:03;;;;;;;6.35;2.88;;;;;;;;;;5033976;28;94579;-79
2023/03/19 04:09:40;;;;;;;5.55;2.35;;;;;;;;;;5038891;28;95755;-77
2023/03/19 04:12:06;;;;;;;8.18;2.88;;;;;;;;;;5033885;28;94681;-78
2023/03/19 04:14:33;;;;;;;5.65;2.50;;;;;;;;;;5030619;28;95577;-77
2023/03/19 04:16:59;;;;;;;6.28;2.55;;;;;;;;;;5032498;28;92985;-78
2023/03/19 04:19:26;;;;;;;7.30;2.55;;;;;;;;;;5035838;28;93301;-77
2023/03/19 04:21:53;;;;;;;5.90;2.45;;;;;;;;;;5039401;27;93287;-78
2023/03/19 04:24:20;;;;;;;7.57;2.75;;;;;;;;;;5036938;28;95105;-78
2023/03/19 04:26:48;;;;;;;7.07;2.45;;;;;;;;;;5027715;27;97189;-79
2023/03/19 04:29:17;;;;;;;6.70;3.08;;;;;;;;;;5039649;27;92149;-78
2023/03/19 04:31:44;;;;;;;8.48;3.42;;;;;;;;;;5035935;27;92400;-78
2023/03/19 04:34:11;;;;;;;6.75;3.20;;;;;;;;;;5007706;28;94611;-77
2023/03/19 04:36:37;;;;;;;6.47;3.00;;;;;;;;;;5022521;28;96610;-77
2023/03/19 04:39:04;;;;;;;7.22;3.30;;;;;;;;;;5024779;28;93780;-78
2023/03/19 04:41:31;;;;;;;6.60;2.92;;;;;;;;;;5026531;28;94565;-76
2023/03/19 04:44:18;;;;;;;9.63;3.25;;;;;;;;;;5037946;28;92066;-78
2023/03/19 04:46:45;;;;;;;8.32;3.45;;;;;;;;;;5035442;28;95237;-78
2023/03/19 04:49:14;;;;;;;7.57;3.13;;;;;;;;;;5011792;28;97700;-78
2023/03/19 04:51:41;;;;;;;7.28;2.80;;;;;;;;;;5025781;28;92163;-79
2023/03/19 04:54:08;;;;;;;9.40;2.85;;;;;;;;;;5038047;28;95039;-78
2023/03/19 04:56:35;;;;;;;7.60;3.00;;;;;;;;;;5026778;27;92207;-78
2023/03/19 04:59:02;;;;;;;7.63;3.35;;;;;;;;;;5036037;28;94463;-78
2023/03/19 05:01:29;;;;;;;7.75;3.13;;;;;;;;;;5030589;28;94689;-78
2023/03/19 05:03:59;;;;;;;6.70;2.83;;;;;;;;;;5037731;28;92192;-78
2023/03/19 05:06:26;;;;;;;6.50;3.30;;;;;;;;;;5036695;27;94718;-79
2023/03/19 05:08:53;;;;;;;7.90;3.78;;;;;;;;;;5008259;27;94988;-78
2023/03/19 05:11:20;;;;;;;6.00;2.80;;;;;;;;;;5032222;28;92575;-79
2023/03/19 05:13:59;;;;;;;7.20;3.47;;;;;;;;;;5042519;28;97368;-80
2023/03/19 05:16:33;;;;;;;6.32;2.70;;;;;;;;;;5037968;28;92078;-80
2023/03/19 05:19:00;;;;;;;8.35;3.35;;;;;;;;;;5010521;28;99426;-79
2023/03/19 05:21:26;;;;;;;9.57;4.15;;;;;;;;;;5040826;28;95424;-79
2023/03/19 05:23:53;;;;;;;7.10;3.53;;;;;;;;;;5028821;28;92555;-79
2023/03/19 05:26:20;;;;;;;9.57;3.90;;;;;;;;;;5019093;28;95242;-78
2023/03/19 05:29:10;;;;;;;8.02;3.83;;;;;;;;;;4996670;28;97075;-78
2023/03/19 05:31:50;;;;;;;9.77;3.83;;;;;;;;;;5033811;28;91307;-78
2023/03/19 05:34:18;;;;;;;9.75;4.28;;;;;;;;;;5040582;28;93090;-78
2023/03/19 05:36:45;;;;;;;8.68;3.30;;;;;;;;;;5033446;28;93600;-78
2023/03/19 05:39:16;;;;;;;8.35;3.63;;;;;;;;;;5038593;27;94375;-77
2023/03/19 05:41:43;;;;;;;8.20;3.92;;;;;;;;;;5033660;28;95520;-78
2023/03/19 05:44:11;;;;;;;6.45;3.30;;;;;;;;;;5027339;28;92531;-78
2023/03/19 05:46:48;;;;;;;7.97;3.33;;;;;;;;;;5036566;27;95009;-79
2023/03/19 05:49:16;;;;;;;7.93;4.07;;;;;;;;;;5040920;28;92704;-79
2023/03/19 05:51:42;;;;;;;8.38;3.92;;;;;;;;;;5040321;28;92424;-78
2023/03/19 05:54:09;;;;;;;9.43;4.78;;;;;;;;;;5040583;28;92587;-79
2023/03/19 05:56:54;;;;;;;7.47;3.20;;;;;;;;;;5036332;27;92174;-79
2023/03/19 05:59:56;;;;;;;10.15;4.80;;;;;;;;;;5020447;28;92311;-77
2023/03/19 06:02:32;;;;;;;9.75;4.10;;;;;;;;;;5035199;27;92392;-77
2023/03/19 06:05:17;;;;;;;;;;;;;;;;;;5037603;27;94529;-77
2023/03/19 06:07:44;;;;;;;7.80;3.45;;;;;;;;;;5041339;28;97400;-79
2023/03/19 06:10:20;;;;;;;9.23;3.30;;;;;;;;;;5024044;28;95282;-78
2023/03/19 06:12:50;;;;;;;11.98;4.13;;;;;;;;;;5033165;27;92818;-76
2023/03/19 06:15:49;;;;;;;10.88;3.97;;;;;;;;;;4994626;27;93237;-77
2023/03/19 06:18:21;;;;;;;13.23;4.53;;;;;;;;;;5038488;27;94510;-76
2023/03/19 06:20:47;;;;;;;20.05;3.53;;;;;;;;;;5037905;27;92208;-76
2023/03/19 06:23:15;;;;;;;9.77;3.30;;;;;;;;;;5042856;28;92723;-76
2023/03/19 06:25:42;;;;;;;9.98;3.00;;;;;;;;;;5018292;28;92606;-76
2023/03/19 06:28:09;;;;;;;8.82;3.13;;;;;;;;;;5029500;28;92394;-76
2023/03/19 06:30:38;;;;;;;6.85;3.42;;;;;;;;;;5016095;27;97606;-77
2023/03/19 06:33:26;;;;;;;8.85;3.50;;;;;;;;;;5039586;28;92138;-77
2023/03/19 06:35:53;;;;;;;5.90;2.83;;;;;;;;;;5031185;28;92713;-76
2023/03/19 06:38:20;;;;;;;6.90;2.63;;;;;;;;;;5016234;28;95374;-75
2023/03/19 06:40:47;;;;;;;6.93;2.90;;;;;;;;;;5027493;27;92403;-77
2023/03/19 06:43:13;;;;;;;6.65;2.88;;;;;;;;;;5034727;27;93316;-76
2023/03/19 06:45:40;;;;;;;7.57;3.00;;;;;;;;;;5040904;27;92342;-75
2023/03/19 06:48:06;;;;;;;9.00;2.83;;;;;;;;;;5040756;27;92412;-75
2023/03/19 06:50:33;;;;;;;6.18;2.78;;;;;;;;;;5040190;27;92501;-75
2023/03/19 06:53:01;;;;;;;7.53;3.17;;;;;;;;;;5040443;27;92380;-75
2023/03/19 06:55:29;;;;;;;7.05;3.10;;;;;;;;;;5028759;28;94350;-75
2023/03/19 06:57:55;;;;;;;7.55;3.15;;;;;;;;;;5028242;28;95243;-75
2023/03/19 07:00:22;;;;;;;10.93;3.30;;;;;;;;;;5033565;27;92239;-76
2023/03/19 07:02:49;;;;;;;8.15;3.13;;;;;;;;;;5037757;27;92406;-76
2023/03/19 07:05:15;;;;;;;8.82;3.00;;;;;;;;;;5042005;28;93079;-76
2023/03/19 07:07:42;;;;;;;7.78;2.53;;;;;;;;;;5035474;27;92429;-75
2023/03/19 07:10:09;;;;;;;6.65;2.58;;;;;;;;;;5032162;28;92954;-76
2023/03/19 07:12:35;;;;;;;6.28;2.15;;;;;;;;;;5020206;27;91722;-76
2023/03/19 07:15:03;;;;;;;7.03;2.10;;;;;;;;;;5027540;28;92458;-77
2023/03/19 07:17:30;;;;;;;5.63;1.80;;;;;;;;;;5037700;28;93248;-77
2023/03/19 07:19:56;;;;;;;5.50;1.85;;;;;;;;;;5037011;28;95132;-77
2023/03/19 07:22:22;;;;;;;4.70;1.90;;;;;;;;;;5015988;28;97200;-78
2023/03/19 07:24:50;;;;;;;3.97;1.70;;;;;;;;;;5020558;27;94841;-77
2023/03/19 07:27:16;;;;;;;4.10;1.77;;;;;;;;;;5038937;27;91994;-77
2023/03/19 07:29:43;;;;;;;4.63;1.70;;;;;;;;;;5014882;28;93120;-76
2023/03/19 07:32:10;;;;;;;4.45;1.85;;;;;;;;;;5026072;28;92332;-76
2023/03/19 07:34:36;;;;;;;3.05;1.60;;;;;;;;;;5038844;27;92812;-76
2023/03/19 07:37:03;;;;;;;6.50;2.00;;;;;;;;;;5022108;27;92078;-76
2023/03/19 07:39:29;;;;;;;6.70;1.77;;;;;;;;;;5014594;28;92898;-76
2023/03/19 07:41:56;;;;;;;7.95;1.77;;;;;;;;;;5024361;28;92316;-77
2023/03/19 07:44:22;;;;;;;7.80;2.00;;;;;;;;;;5028702;27;95560;-76
2023/03/19 07:46:49;;;;;;;6.53;1.95;;;;;;;;;;5033863;27;95360;-75
2023/03/19 07:49:16;;;;;;;5.55;1.77;;;;;;;;;;5041174;27;92525;-76
2023/03/19 07:51:43;;;;;;;6.38;2.20;;;;;;;;;;5024880;28;92203;-77
2023/03/19 07:54:09;;;;;;;4.88;2.03;;;;;;;;;;5039600;27;92789;-76
2023/03/19 07:56:36;;;;;;;5.70;1.95;;;;;;;;;;5026032;27;95569;-78
2023/03/19 07:59:02;;;;;;;4.75;2.25;;;;;;;;;;5030055;27;92399;-77
2023/03/19 08:01:29;;;;;;;6.22;2.25;;;;;;;;;;5039675;27;93824;-78
2023/03/19 08:03:55;;;;;;;5.75;2.28;;;;;;;;;;5035495;27;92750;-78
2023/03/19 08:06:22;;;;;;;5.70;2.40;;;;;;;;;;5032389;28;92682;-78
2023/03/19 08:08:48;;;;;;;5.68;2.20;;;;;;;;;;5035898;27;94415;-80
2023/03/19 08:11:15;;;;;;;5.72;2.05;;;;;;;;;;5032148;27;93058;-80
2023/03/19 08:13:42;;;;;;;5.57;2.08;;;;;;;;;;5035868;27;92498;-79
2023/03/19 08:16:08;;;;;;;4.53;1.90;;;;;;;;;;5033124;28;94822;-78
2023/03/19 08:18:35;;;;;;;5.88;2.50;;;;;;;;;;5030180;27;92940;-79
2023/03/19 08:21:02;;;;;;;5.95;2.38;;;;;;;;;;5037061;28;93347;-78
2023/03/19 08:23:28;;;;;;;5.05;2.10;;;;;;;;;;5037185;28;93647;-79
2023/03/19 08:25:55;;;;;;;4.30;2.05;;;;;;;;;;5038205;27;91511;-79
2023/03/19 08:28:22;;;;;;;6.82;2.20;;;;;;;;;;5031337;28;92342;-78
2023/03/19 08:30:48;;;;;;;5.70;2.20;;;;;;;;;;5035206;27;93054;-79
2023/03/19 08:33:15;;;;;;;6.07;2.30;;;;;;;;;;5009748;28;94740;-78
2023/03/19 08:35:42;;;;;;;4.97;1.98;;;;;;;;;;5023070;28;95242;-78
2023/03/19 08:38:09;;;;;;;4.82;2.20;;;;;;;;;;5030723;27;92334;-80
2023/03/19 08:40:36;;;;;;;6.75;2.40;;;;;;;;;;5039026;27;93099;-80
2023/03/19 08:43:03;;;;;;;7.03;2.38;;;;;;;;;;5031161;28;95263;-79
2023/03/19 08:45:29;;;;;;;4.97;2.28;;;;;;;;;;5043818;27;92723;-79
2023/03/19 08:47:57;;;;;;;5.93;2.65;;;;;;;;;;5028336;28;92745;-78
2023/03/19 08:50:23;;;;;;;10.77;3.00;;;;;;;;;;5023618;28;95130;-77
2023/03/19 08:52:50;;;;;;;7.45;2.33;;;;;;;;;;5026974;27;92241;-78
2023/03/19 08:55:17;;;;;;;7.05;2.50;;;;;;;;;;5037296;28;92514;-78
2023/03/19 08:57:43;;;;;;;6.80;2.85;;;;;;;;;;5031078;28;95140;-78
2023/03/19 09:00:10;;;;;;;8.18;2.92;;;;;;;;;;5040511;28;95112;-77
2023/03/19 09:02:36;;;;;;;6.18;2.55;;;;;;;;;;5022735;27;93456;-76
2023/03/19 09:05:03;;;;;;;6.47;2.60;;;;;;;;;;5042139;27;92580;-77
2023/03/19 09:07:29;;;;;;;7.60;2.80;;;;;;;;;;5042434;27;92504;-78
2023/03/19 09:09:56;;;;;;;7.68;2.85;;;;;;;;;;5041055;28;92018;-77
2023/03/19 09:12:22;;;;;;;7.18;3.08;;;;;;;;;;5028462;28;92332;-77
2023/03/19 09:14:49;;;;;;;7.47;3.03;;;;;;;;;;5039607;27;92739;-78
2023/03/19 09:17:17;;;;;;;7.57;2.83;;;;;;;;;;5042802;27;92622;-78
2023/03/19 09:19:43;;;;;;;6.50;3.00;;;;;;;;;;5039073;28;92957;-77
2023/03/19 09:22:09;;;;;;;6.97;3.00;;;;;;;;;;5029883;27;95186;-77
2023/03/19 09:24:36;;;;;;;6.40;2.72;;;;;;;;;;5037873;27;92216;-78
2023/03/19 09:27:06;;;;;;;6.30;2.80;;;;;;;;;;5033030;27;92547;-79
2023/03/19 09:29:32;;;;;;;6.35;2.78;;;;;;;;;;5025644;28;92692;-77
2023/03/19 09:31:59;;;;;;;6.70;2.83;;;;;;;;;;5035362;28;92685;-78
2023/03/19 09:34:26;;;;;;;;;;;;;;;;;;5043038;27;94439;-78
2023/03/19 09:36:52;;;;;;;5.82;2.60;;;;;;;;;;5009290;28;124522;-77
2023/03/19 09:39:18;;;;;;;6.28;2.88;;;;;;;;;;5036008;27;92423;-77
2023/03/19 09:41:48;;;;;;;6.50;2.83;;;;;;;;;;5040605;27;92744;-78
2023/03/19 09:44:26;;;;;;;7.07;2.95;;;;;;;;;;5033816;28;94083;-78
2023/03/19 09:46:55;;;;;;;7.32;2.95;;;;;;;;;;5039561;27;94550;-78
2023/03/19 09:49:22;;;;;;;6.18;2.83;;;;;;;;;;5040220;28;93153;-78
2023/03/19 09:51:53;;;;;;;6.20;2.95;;;;;;;;;;5038497;27;92372;-78
2023/03/19 09:54:31;;;;;;;7.22;2.80;;;;;;;;;;5042498;27;93356;-78
2023/03/19 09:56:57;;;;;;;6.05;2.78;;;;;;;;;;5035219;27;93143;-77
2023/03/19 09:59:25;;;;;;;6.43;2.97;;;;;;;;;;5032026;28;92163;-77
2023/03/19 10:01:58;;;;;;;8.07;2.80;;;;;;;;;;5037251;28;92908;-77
2023/03/19 10:04:51;;;;;;;7.10;2.70;;;;;;;;;;5041423;28;91983;-78
2023/03/19 10:07:18;;;;;;;7.20;3.20;;;;;;;;;;5033277;28;96097;-78
2023/03/19 10:09:44;;;;;;;6.75;2.58;;;;;;;;;;5033625;28;93226;-78
2023/03/19 10:12:16;;;;;;;7.05;3.10;;;;;;;;;;5025107;28;96272;-76
2023/03/19 10:14:42;;;;;;;7.85;3.20;;;;;;;;;;5023321;27;95044;-77
2023/03/19 10:17:14;;;;;;;6.22;3.05;;;;;;;;;;5037472;27;92677;-78
2023/03/19 10:20:00;;;;;;;6.03;2.70;;;;;;;;;;5020590;28;92317;-78
2023/03/19 10:22:34;;;;;;;7.38;3.00;;;;;;;;;;5039792;27;92447;-78
2023/03/19 10:25:01;;;;;;;7.53;3.00;;;;;;;;;;5030353;28;92326;-77
2023/03/19 10:27:28;;;;;;;7.30;3.45;;;;;;;;;;5028070;28;93016;-77
2023/03/19 10:29:55;;;;;;;6.80;2.92;;;;;;;;;;5037918;27;92024;-77
2023/03/19 10:32:36;;;;;;;6.45;2.72;;;;;;;;;;5028127;28;92735;-77
2023/03/19 10:35:07;;;;;;;7.70;2.90;;;;;;;;;;5039365;27;97497;-77
2023/03/19 10:37:35;;;;;;;6.97;2.75;;;;;;;;;;5021458;28;95678;-77
2023/03/19 10:40:01;;;;;;;7.43;3.35;;;;;;;;;;5031091;28;92153;-78
2023/03/19 10:42:38;;;;;;;7.88;2.65;;;;;;;;;;5032132;27;92359;-78
2023/03/19 10:45:12;;;;;;;13.50;3.15;;;;;;;;;;5028707;28;100943;-80
2023/03/19 10:47:40;;;;;;;8.73;3.20;;;;;;;;;;5037144;28;95535;-80
2023/03/19 10:50:10;;;;;;;11.07;3.30;;;;;;;;;;5034224;28;93020;-81
2023/03/19 10:52:36;;;;;;;9.20;3.10;;;;;;;;;;5015332;28;92111;-80
2023/03/19 10:55:06;;;;;;;7.85;2.92;;;;;;;;;;5036272;28;94761;-80
2023/03/19 10:57:33;;;;;;;19.73;11.63;;;;;;;;;;5015559;28;92720;-79
2023/03/19 11:00:01;;;;;;;15.63;7.65;;;;;;;;;;5035239;28;92317;-79
2023/03/19 11:02:30;;;;;;;11.45;5.07;;;;;;;;;;5038979;27;95108;-80
2023/03/19 11:05:17;;;;;;;9.68;4.35;;;;;;;;;;5011486;28;95492;-79
2023/03/19 11:07:47;;;;;;;7.72;3.67;;;;;;;;;;5039265;27;92725;-82
2023/03/19 11:10:15;;;;;;;9.10;3.75;;;;;;;;;;5040478;27;92533;-82
2023/03/19 11:12:46;;;;;;;8.52;4.00;;;;;;;;;;5030739;27;92838;-78
2023/03/19 11:15:19;;;;;;;8.38;4.13;;;;;;;;;;5032142;27;93030;-78
2023/03/19 11:17:47;;;;;;;7.55;3.38;;;;;;;;;;5035954;27;93456;-79
2023/03/19 11:20:22;;;;;;;6.15;3.15;;;;;;;;;;5033532;28;91413;-78
2023/03/19 11:22:50;;;;;;;8.20;3.30;;;;;;;;;;5026460;27;92109;-79
2023/03/19 11:25:18;;;;;;;9.07;3.40;;;;;;;;;;5009868;28;93104;-78
2023/03/19 11:27:57;;;;;;;6.85;3.13;;;;;;;;;;5039442;27;94540;-79
2023/03/19 11:30:24;;;;;;;6.18;3.08;;;;;;;;;;5037494;27;93593;-78
2023/03/19 11:33:09;;;;;;;7.30;2.90;;;;;;;;;;5022269;27;92558;-77
2023/03/19 11:35:37;;;;;;;7.05;3.10;;;;;;;;;;5036524;27;92664;-79
2023/03/19 11:38:09;;;;;;;6.97;2.95;;;;;;;;;;5023622;27;92686;-77
2023/03/19 11:40:42;;;;;;;6.60;3.10;;;;;;;;;;5014526;27;92028;-77
2023/03/19 11:43:11;;;;;;;9.77;3.10;;;;;;;;;;5027231;27;92281;-78
2023/03/19 11:45:58;;;;;;;24.42;2.33;;;;;;;;;;5026326;27;91755;-77
2023/03/19 11:48:34;;;;;;;8.00;2.38;;;;;;;;;;5040320;27;92182;-76
2023/03/19 11:51:10;;;;;;;6.60;2.45;;;;;;;;;;5024146;28;96978;-77
2023/03/19 11:53:51;;;;;;;10.68;2.72;;;;;;;;;;5038252;27;94568;-76
2023/03/19 11:56:22;;;;;;;6.78;2.85;;;;;;;;;;5031691;27;94727;-76
2023/03/19 11:59:08;;;;;;;6.93;3.03;;;;;;;;;;5037746;27;93204;-77
2023/03/19 12:01:57;;;;;;;7.47;3.05;;;;;;;;;;5038520;27;93500;-77
2023/03/19 12:04:34;;;;;;;17.05;3.17;;;;;;;;;;5033277;28;92456;-77
2023/03/19 12:07:03;;;;;;;7.43;2.90;;;;;;;;;;5019176;27;97117;-76
2023/03/19 12:09:40;;;;;;;6.90;2.72;;;;;;;;;;5025675;27;92421;-77
2023/03/19 12:12:16;;;;;;;7.38;2.92;;;;;;;;;;5034938;28;92211;-77
2023/03/19 12:14:52;;;;;;;6.60;2.83;;;;;;;;;;5040114;27;92643;-77
2023/03/19 12:17:36;;;;;;;7.65;3.20;;;;;;;;;;5034845;28;92476;-77
2023/03/19 12:20:21;;;;;;;8.63;3.13;;;;;;;;;;5036125;27;98135;-76
2023/03/19 12:23:11;;;;;;;8.02;2.83;;;;;;;;;;5041812;27;92549;-77
2023/03/19 12:25:44;;;;;;;8.40;3.40;;;;;;;;;;5015670;27;92473;-77
2023/03/19 12:28:11;;;;;;;;;;;;;;;;;;5035730;27;92998;-75
2023/03/19 12:30:40;;;;;;;9.10;2.88;;;;;;;;;;5039397;27;105992;-75
2023/03/19 12:33:22;;;;;;;7.97;3.00;;;;;;;;;;5029735;27;92846;-75
2023/03/19 12:35:49;;;;;;;8.07;3.17;;;;;;;;;;5053912;27;93281;-76
2023/03/19 12:38:17;;;;;;;11.48;2.92;;;;;;;;;;5041647;27;91677;-75
2023/03/19 12:40:56;;;;;;;8.93;3.13;;;;;;;;;;5039461;27;92437;-75
2023/03/19 12:43:29;;;;;;;8.80;2.92;;;;;;;;;;5042035;27;92375;-76
2023/03/19 12:46:01;;;;;;;7.38;2.72;;;;;;;;;;5036670;28;94851;-76
2023/03/19 12:48:30;;;;;;;7.30;3.08;;;;;;;;;;5041084;27;93414;-75
2023/03/19 12:51:02;;;;;;;6.82;2.83;;;;;;;;;;5040301;27;93555;-74
2023/03/19 12:53:49;;;;;;;6.47;2.85;;;;;;;;;;5040223;28;92821;-75
2023/03/19 12:56:33;;;;;;;7.18;2.90;;;;;;;;;;5024094;28;95755;-77
2023/03/19 12:58:59;;;;;;;6.25;2.83;;;;;;;;;;5036988;27;92138;-75
2023/03/19 13:01:30;;;;;;;6.47;2.70;;;;;;;;;;5031540;28;93309;-76
2023/03/19 13:04:03;;;;;;;7.45;2.70;;;;;;;;;;5026914;27;91837;-76
2023/03/19 13:06:32;;;;;;;19.92;3.25;;;;;;;;;;5032375;28;92919;-77
2023/03/19 13:09:02;;;;;;;8.43;2.65;;;;;;;;;;5026286;27;93166;-77
2023/03/19 13:11:36;;;;;;;8.80;3.13;;;;;;;;;;5010379;28;94869;-77
2023/03/19 13:14:16;;;;;;;10.15;3.20;;;;;;;;;;5023713;28;95315;-76
2023/03/19 13:16:53;;;;;;;8.00;3.10;;;;;;;;;;5016764;28;94657;-77
2023/03/19 13:19:20;;;;;;;9.55;3.53;;;;;;;;;;5021914;28;92611;-75
2023/03/19 13:21:49;;;;;;;9.20;2.97;;;;;;;;;;5022064;28;92947;-75
2023/03/19 13:24:24;;;;;;;9.07;3.42;;;;;;;;;;5026881;28;92511;-76
2023/03/19 13:26:52;;;;;;;9.05;3.45;;;;;;;;;;5016060;28;92917;-76
2023/03/19 13:29:20;;;;;;;9.20;3.28;;;;;;;;;;5026640;27;91974;-77
2023/03/19 13:31:47;;;;;;;7.05;2.60;;;;;;;;;;5023862;28;92726;-77
2023/03/19 13:34:17;;;;;;;7.30;2.90;;;;;;;;;;5026138;28;92423;-77
2023/03/19 13:36:58;;;;;;;7.53;2.97;;;;;;;;;;5016077;28;95389;-79
2023/03/19 13:39:27;;;;;;;7.35;2.90;;;;;;;;;;5023152;28;92192;-77
2023/03/19 13:42:22;;;;;;;6.25;2.83;;;;;;;;;;5021297;28;92668;-77
2023/03/19 13:44:56;;;;;;;6.70;2.83;;;;;;;;;;5022530;27;95013;-77
2023/03/19 13:47:22;;;;;;;;;;;;;;;;;;5015432;28;94749;-78
2023/03/19 13:50:14;;;;;;;6.05;2.75;;;;;;;;;;5032182;27;117821;-77
2023/03/19 13:52:41;;;;;;;6.90;2.70;;;;;;;;;;5020019;28;92743;-76
2023/03/19 13:55:23;;;;;;;6.15;2.45;;;;;;;;;;5024488;28;92687;-76
2023/03/19 13:58:26;;;;;;;7.85;3.05;;;;;;;;;;5021598;28;92665;-76
2023/03/19 14:00:57;;;;;;;5.93;2.80;;;;;;;;;;5017417;28;92189;-76
2023/03/19 14:03:30;;;;;;;6.25;3.08;;;;;;;;;;5016883;28;94598;-76
2023/03/19 14:05:58;;;;;;;8.18;2.55;;;;;;;;;;5020310;28;92989;-76
2023/03/19 14:08:31;;;;;;;6.53;2.50;;;;;;;;;;5035322;27;91921;-77
2023/03/19 14:10:59;;;;;;;6.32;2.50;;;;;;;;;;5017306;28;93690;-77
2023/03/19 14:13:55;;;;;;;7.75;2.75;;;;;;;;;;5019045;28;92562;-77
2023/03/19 14:16:28;;;;;;;6.32;2.63;;;;;;;;;;5012485;28;92989;-81
2023/03/19 14:18:56;;;;;;;15.52;2.72;;;;;;;;;;5019894;28;92777;-77
2023/03/19 14:21:34;;;;;;;7.75;2.95;;;;;;;;;;5030206;28;91356;-76
2023/03/19 14:24:20;;;;;;;8.40;3.17;;;;;;;;;;5014598;28;92684;-76
2023/03/19 14:27:14;;;;;;;10.38;3.28;;;;;;;;;;5034127;27;97573;-76
2023/03/19 14:29:43;;;;;;;9.27;3.35;;;;;;;;;;5031588;27;95094;-77
2023/03/19 14:32:15;;;;;;;9.30;3.40;;;;;;;;;;5037057;28;94748;-77
2023/03/19 14:34:42;;;;;;;7.85;3.75;;;;;;;;;;5014391;27;92307;-76
2023/03/19 14:37:12;;;;;;;7.13;3.10;;;;;;;;;;5026124;28;94512;-77
2023/03/19 14:39:39;;;;;;;8.38;3.40;;;;;;;;;;5028461;28;94621;-76
2023/03/19 14:42:21;;;;;;;7.78;2.97;;;;;;;;;;5020102;28;92235;-77
2023/03/19 14:45:03;;;;;;;6.40;2.72;;;;;;;;;;5019287;28;92828;-77
2023/03/19 14:47:51;;;;;;;7.95;3.42;;;;;;;;;;5012689;28;94622;-76
2023/03/19 14:50:34;;;;;;;8.30;3.50;;;;;;;;;;5017465;28;92583;-76
2023/03/19 14:53:13;;;;;;;8.40;3.10;;;;;;;;;;5012068;28;96639;-76
2023/03/19 14:55:40;;;;;;;7.97;3.35;;;;;;;;;;5018543;28;95602;-77
2023/03/19 14:58:11;;;;;;;9.02;3.38;;;;;;;;;;5023440;28;95596;-77
2023/03/19 15:00:43;;;;;;;8.20;3.15;;;;;;;;;;5030159;27;92813;-76
2023/03/19 15:03:28;;;;;;;8.13;2.90;;;;;;;;;;5032997;28;93094;-76